createdAt,value
2023-03-26T00:01:30.209Z,54.55
2023-03-26T00:03:58.090Z,54.68
2023-03-26T00:06:30.731Z,55.68
2023-03-26T00:08:58.516Z,55.12
2023-03-26T00:11:28.479Z,55.40
2023-03-26T00:13:57.744Z,56.52
2023-03-26T00:16:27.969Z,57.21
2023-03-26T00:18:54.822Z,56.03
2023-03-26T00:21:28.154Z,55.24
2023-03-26T00:24:01.057Z,55.63
2023-03-26T00:26:31.087Z,55.98
2023-03-26T00:28:58.644Z,55.56
2023-03-26T00:31:25.330Z,56.93
2023-03-26T00:33:56.008Z,55.24
2023-03-26T00:36:27.821Z,55.34
2023-03-26T00:38:55.056Z,55.45
2023-03-26T00:41:31.175Z,56.79
2023-03-26T00:44:00.014Z,56.77
2023-03-26T00:46:31.194Z,58.18
2023-03-26T00:49:04.250Z,56.82
2023-03-26T00:51:31.955Z,56.28
2023-03-26T00:54:00.056Z,56.00
2023-03-26T00:56:26.989Z,55.81
2023-03-26T00:58:53.649Z,57.97
2023-03-26T01:01:28.054Z,57.71
2023-03-26T01:04:08.946Z,58.50
2023-03-26T01:06:42.260Z,57.73
2023-03-26T01:09:20.890Z,56.24
2023-03-26T01:11:49.728Z,58.17
2023-03-26T01:14:20.993Z,56.87
2023-03-26T01:16:52.493Z,56.63
2023-03-26T01:19:44.877Z,56.14
2023-03-26T01:22:18.794Z,56.48
2023-03-26T01:24:52.248Z,56.34
2023-03-26T01:27:35.985Z,57.00
2023-03-26T01:30:13.046Z,56.23
2023-03-26T01:32:51.981Z,55.47
2023-03-26T01:35:31.843Z,55.34
2023-03-26T01:38:22.816Z,55.38
2023-03-26T01:41:01.899Z,56.27
2023-03-26T01:43:36.813Z,56.36
2023-03-26T01:46:08.313Z,56.00
2023-03-26T01:48:38.256Z,56.19
2023-03-26T01:51:06.646Z,55.29
2023-03-26T01:53:37.435Z,55.90
2023-03-26T01:56:30.587Z,56.96
2023-03-26T01:59:03.872Z,55.94
2023-03-26T02:01:54.996Z,56.23
2023-03-26T02:04:28.708Z,57.00
2023-03-26T02:07:43.395Z,55.95
2023-03-26T02:10:21.158Z,56.20
2023-03-26T02:12:48.298Z,55.97
2023-03-26T02:15:14.915Z,56.01
2023-03-26T02:17:41.944Z,57.02
2023-03-26T02:20:14.570Z,57.26
2023-03-26T02:22:45.792Z,56.68
2023-03-26T02:25:19.402Z,57.39
2023-03-26T02:27:49.716Z,56.86
2023-03-26T02:30:25.925Z,56.53
2023-03-26T02:32:59.120Z,57.53
2023-03-26T02:35:29.834Z,56.21
2023-03-26T02:37:59.364Z,56.77
2023-03-26T02:40:26.317Z,57.55
2023-03-26T02:42:53.089Z,57.04
2023-03-26T02:45:21.182Z,58.10
2023-03-26T02:48:07.999Z,56.40
2023-03-26T02:50:50.247Z,56.13
2023-03-26T02:53:29.783Z,56.46
2023-03-26T02:56:14.562Z,56.67
2023-03-26T02:58:53.281Z,56.12
2023-03-26T03:01:21.294Z,55.69
2023-03-26T03:03:52.031Z,56.02
2023-03-26T03:06:30.919Z,56.12
2023-03-26T03:08:58.814Z,55.52
2023-03-26T03:11:39.407Z,55.02
2023-03-26T03:14:07.181Z,55.12
2023-03-26T03:16:34.756Z,54.87
2023-03-26T03:19:10.754Z,55.19
2023-03-26T03:21:39.533Z,55.55
2023-03-26T03:24:10.143Z,54.77
2023-03-26T03:26:45.704Z,54.49
2023-03-26T03:29:29.952Z,56.38
2023-03-26T03:32:01.947Z,55.53
2023-03-26T03:34:44.246Z,56.23
2023-03-26T03:37:11.822Z,56.78
2023-03-26T03:39:47.926Z,57.58
2023-03-26T03:42:19.441Z,59.04
2023-03-26T03:44:47.962Z,57.58
2023-03-26T03:47:46.499Z,57.96
2023-03-26T03:50:15.668Z,57.42
2023-03-26T03:52:55.914Z,56.78
2023-03-26T03:55:24.225Z,55.84
2023-03-26T03:57:53.963Z,56.57
2023-03-26T04:00:24.354Z,57.41
2023-03-26T04:03:14.239Z,56.55
2023-03-26T04:05:43.688Z,55.62
2023-03-26T04:08:10.898Z,55.24
2023-03-26T04:10:45.665Z,55.62
2023-03-26T04:13:13.744Z,56.29
2023-03-26T04:15:57.886Z,56.02
2023-03-26T04:18:26.325Z,55.50
2023-03-26T04:20:55.629Z,55.45
2023-03-26T04:23:26.701Z,55.52
2023-03-26T04:26:10.515Z,55.50
2023-03-26T04:29:02.808Z,55.43
2023-03-26T04:31:31.185Z,55.10
2023-03-26T04:34:07.011Z,53.87
2023-03-26T04:36:42.705Z,54.05
2023-03-26T04:39:13.449Z,54.48
2023-03-26T04:41:59.055Z,55.58
2023-03-26T04:44:34.935Z,55.42
2023-03-26T04:47:06.386Z,55.81
2023-03-26T04:49:42.321Z,56.47
2023-03-26T04:52:12.645Z,55.94
2023-03-26T04:54:57.797Z,55.88
2023-03-26T04:57:43.701Z,55.54
2023-03-26T05:00:20.375Z,55.22
2023-03-26T05:02:56.277Z,54.86
2023-03-26T05:05:24.667Z,54.74
2023-03-26T05:07:51.784Z,54.78
2023-03-26T05:10:21.372Z,54.39
2023-03-26T05:12:56.402Z,53.90
2023-03-26T05:15:29.321Z,54.19
2023-03-26T05:17:58.677Z,53.61
2023-03-26T05:20:31.199Z,54.24
2023-03-26T05:22:58.113Z,55.77
2023-03-26T05:25:30.459Z,55.16
2023-03-26T05:27:58.416Z,54.97
2023-03-26T05:30:31.403Z,54.27
2023-03-26T05:33:02.720Z,54.64
2023-03-26T05:35:35.577Z,55.37
2023-03-26T05:38:02.416Z,54.91
2023-03-26T05:40:29.232Z,55.02
2023-03-26T05:43:04.464Z,55.59
2023-03-26T05:45:41.001Z,55.82
2023-03-26T05:48:29.862Z,56.60
2023-03-26T05:50:58.048Z,55.81
2023-03-26T05:53:27.783Z,55.59
2023-03-26T05:56:13.157Z,54.70
2023-03-26T05:58:58.466Z,54.62
2023-03-26T06:01:51.300Z,54.40
2023-03-26T06:04:31.858Z,55.72
2023-03-26T06:07:19.879Z,55.42
2023-03-26T06:10:07.593Z,55.25
2023-03-26T06:12:34.568Z,54.78
2023-03-26T06:15:01.282Z,53.97
2023-03-26T06:18:00.387Z,54.13
2023-03-26T06:20:47.103Z,53.44
2023-03-26T06:23:23.906Z,53.44
2023-03-26T06:26:27.462Z,52.88
2023-03-26T06:29:14.731Z,52.82
2023-03-26T06:31:59.576Z,52.95
2023-03-26T06:34:44.963Z,52.86
2023-03-26T06:37:11.821Z,52.73
2023-03-26T06:39:38.606Z,52.42
2023-03-26T06:42:12.600Z,52.09
2023-03-26T06:45:03.566Z,51.73
2023-03-26T06:47:48.809Z,51.81
2023-03-26T06:50:15.840Z,51.70
2023-03-26T06:53:11.297Z,51.57
2023-03-26T06:55:41.786Z,53.13
2023-03-26T06:58:20.434Z,53.05
2023-03-26T07:01:06.669Z,55.50
2023-03-26T07:03:52.296Z,56.03
2023-03-26T07:06:37.783Z,57.32
2023-03-26T07:09:23.410Z,57.08
2023-03-26T07:12:09.382Z,57.07
2023-03-26T07:14:57.905Z,56.96
2023-03-26T07:17:52.833Z,55.94
2023-03-26T07:20:26.851Z,56.07
2023-03-26T07:22:54.042Z,56.59
2023-03-26T07:25:50.371Z,56.70
2023-03-26T07:29:04.770Z,55.90
2023-03-26T07:32:20.176Z,56.13
2023-03-26T07:35:14.273Z,55.86
2023-03-26T07:38:12.660Z,56.33
2023-03-26T07:41:17.710Z,56.38
2023-03-26T07:44:09.774Z,55.22
2023-03-26T07:46:55.702Z,56.76
2023-03-26T07:49:47.539Z,56.26
2023-03-26T07:52:40.853Z,55.99
2023-03-26T07:55:17.863Z,55.94
2023-03-26T07:58:28.495Z,55.22
2023-03-26T08:01:34.531Z,56.16
2023-03-26T08:04:23.904Z,55.06
2023-03-26T08:07:28.362Z,54.40
2023-03-26T08:10:33.306Z,54.71
2023-03-26T08:13:05.214Z,54.79
2023-03-26T08:15:43.998Z,54.59
2023-03-26T08:18:44.647Z,53.58
2023-03-26T08:21:17.456Z,53.51
2023-03-26T08:24:13.428Z,53.77
2023-03-26T08:26:57.524Z,53.19
2023-03-26T08:29:45.189Z,53.59
2023-03-26T08:32:17.956Z,53.40
2023-03-26T08:34:45.159Z,53.24
2023-03-26T08:37:12.500Z,53.75
2023-03-26T08:39:41.787Z,53.46
2023-03-26T08:42:46.228Z,53.13
2023-03-26T08:45:18.787Z,54.64
2023-03-26T08:48:29.953Z,53.93
2023-03-26T08:51:18.485Z,54.41
2023-03-26T08:53:51.178Z,54.81
2023-03-26T08:56:37.496Z,56.10
2023-03-26T08:59:25.781Z,56.54
2023-03-26T09:02:34.500Z,56.25
2023-03-26T09:05:36.220Z,55.63
2023-03-26T09:08:35.628Z,55.09
2023-03-26T09:11:16.625Z,53.79
2023-03-26T09:14:10.579Z,53.99
2023-03-26T09:16:55.645Z,53.89
2023-03-26T09:19:25.281Z,54.19
2023-03-26T09:22:13.721Z,56.03
2023-03-26T09:24:46.583Z,54.67
2023-03-26T09:27:38.164Z,54.30
2023-03-26T09:30:43.259Z,55.58
2023-03-26T09:33:32.203Z,54.52
2023-03-26T09:36:49.979Z,55.18
2023-03-26T09:39:33.376Z,54.75
2023-03-26T09:42:04.972Z,54.09
2023-03-26T09:44:55.549Z,55.63
2023-03-26T09:47:53.583Z,55.06
2023-03-26T09:50:41.297Z,55.04
2023-03-26T09:53:16.610Z,54.53
2023-03-26T09:55:43.424Z,55.26
2023-03-26T09:58:38.814Z,55.46
2023-03-26T10:01:25.191Z,54.13
2023-03-26T10:04:07.252Z,54.49
2023-03-26T10:06:53.010Z,54.37
2023-03-26T10:09:34.314Z,55.79
2023-03-26T10:12:10.777Z,54.98
2023-03-26T10:14:54.852Z,53.86
2023-03-26T10:17:29.017Z,54.07
2023-03-26T10:20:30.974Z,54.63
2023-03-26T10:23:30.394Z,55.23
2023-03-26T10:26:11.382Z,53.91
2023-03-26T10:28:59.504Z,54.38
2023-03-26T10:32:14.304Z,54.54
2023-03-26T10:34:56.454Z,53.44
2023-03-26T10:37:38.494Z,56.20
2023-03-26T10:40:23.845Z,57.36
2023-03-26T10:43:00.281Z,56.13
2023-03-26T10:45:44.125Z,55.15
2023-03-26T10:48:42.007Z,54.44
2023-03-26T10:51:27.493Z,56.19
2023-03-26T10:53:58.445Z,54.94
2023-03-26T10:56:54.355Z,55.09
2023-03-26T10:59:21.601Z,55.32
2023-03-26T11:02:21.015Z,54.63
2023-03-26T11:05:19.453Z,53.35
2023-03-26T11:08:19.400Z,55.49
2023-03-26T11:11:21.216Z,55.74
2023-03-26T11:14:04.170Z,54.33
2023-03-26T11:16:38.752Z,53.91
2023-03-26T11:19:33.459Z,53.81
2023-03-26T11:22:11.307Z,53.72
2023-03-26T11:24:47.231Z,53.63
2023-03-26T11:27:33.859Z,52.72
2023-03-26T11:30:23.589Z,53.84
2023-03-26T11:32:59.190Z,53.56
2023-03-26T11:35:39.561Z,53.41
2023-03-26T11:38:32.894Z,53.48
2023-03-26T11:41:01.720Z,52.93
2023-03-26T11:43:52.407Z,53.26
2023-03-26T11:46:22.934Z,53.56
2023-03-26T11:49:06.680Z,53.37
2023-03-26T11:51:36.207Z,54.51
2023-03-26T11:54:08.238Z,55.01
2023-03-26T11:57:04.711Z,54.75
2023-03-26T11:59:57.263Z,53.50
2023-03-26T12:02:38.742Z,54.46
2023-03-26T12:05:27.337Z,53.44
2023-03-26T12:07:59.663Z,54.11
2023-03-26T12:10:39.290Z,53.59
2023-03-26T12:13:20.647Z,55.29
2023-03-26T12:15:47.736Z,53.94
2023-03-26T12:18:26.092Z,55.56
2023-03-26T12:21:23.479Z,53.79
2023-03-26T12:23:58.198Z,53.55
2023-03-26T12:26:39.409Z,55.06
2023-03-26T12:29:18.105Z,53.97
2023-03-26T12:32:17.023Z,54.83
2023-03-26T12:34:44.039Z,56.31
2023-03-26T12:37:37.429Z,54.69
2023-03-26T12:40:32.644Z,54.04
2023-03-26T12:44:51.385Z,56.36
2023-03-26T12:47:54.422Z,56.60
2023-03-26T12:48:41.541Z,55.94
2023-03-26T12:51:37.820Z,56.19
2023-03-26T12:54:04.549Z,56.58
2023-03-26T12:57:12.312Z,58.49
2023-03-26T13:00:09.125Z,58.33
2023-03-26T13:03:03.980Z,57.85
2023-03-26T13:05:50.774Z,57.34
2023-03-26T13:08:46.745Z,56.00
2023-03-26T13:11:20.160Z,57.17
2023-03-26T13:14:16.273Z,58.03
2023-03-26T13:16:56.756Z,59.24
2023-03-26T13:19:47.842Z,60.56
2023-03-26T13:22:22.600Z,62.36
2023-03-26T13:24:55.869Z,61.31
2023-03-26T13:27:31.137Z,63.94
2023-03-26T13:30:19.619Z,61.99
2023-03-26T13:32:58.621Z,61.98
2023-03-26T13:35:37.266Z,62.67
2023-03-26T13:38:13.154Z,61.24
2023-03-26T13:40:59.251Z,62.30
2023-03-26T13:43:31.714Z,63.90
2023-03-26T13:46:21.856Z,62.73
2023-03-26T13:48:59.921Z,64.20
2023-03-26T13:51:52.980Z,64.05
2023-03-26T13:54:32.341Z,64.52
2023-03-26T13:57:25.397Z,63.75
2023-03-26T14:00:00.149Z,63.66
2023-03-26T14:02:39.678Z,64.10
2023-03-26T14:05:21.761Z,63.74
2023-03-26T14:07:54.849Z,64.12
2023-03-26T14:10:26.543Z,63.24
2023-03-26T14:13:24.302Z,64.30
2023-03-26T14:16:37.481Z,63.97
2023-03-26T14:19:58.841Z,63.04
2023-03-26T14:22:37.989Z,62.61
2023-03-26T14:25:42.064Z,63.13
2023-03-26T14:28:47.068Z,63.49
2023-03-26T14:31:38.296Z,61.46
2023-03-26T14:34:23.518Z,61.16
2023-03-26T14:37:06.131Z,60.26
2023-03-26T14:40:14.833Z,58.40
2023-03-26T14:42:46.985Z,61.98
2023-03-26T14:45:50.062Z,64.01
2023-03-26T14:48:42.150Z,61.15
2023-03-26T14:51:16.483Z,60.65
2023-03-26T14:53:54.270Z,61.13
2023-03-26T14:56:30.502Z,59.12
2023-03-26T14:59:18.516Z,60.51
2023-03-26T15:02:09.585Z,59.27
2023-03-26T15:04:54.157Z,60.80
2023-03-26T15:07:50.163Z,60.04
2023-03-26T15:10:54.200Z,58.86
2023-03-26T15:13:48.890Z,60.01
2023-03-26T15:16:34.358Z,58.22
2023-03-26T15:19:10.517Z,57.52
2023-03-26T15:22:18.937Z,58.43
2023-03-26T15:25:01.048Z,55.87
2023-03-26T15:28:08.077Z,57.02
2023-03-26T15:31:07.622Z,57.03
2023-03-26T15:33:43.979Z,56.35
2023-03-26T15:36:45.509Z,56.11
2023-03-26T15:39:19.261Z,55.92
2023-03-26T15:42:23.677Z,56.38
2023-03-26T15:44:54.051Z,55.17
2023-03-26T15:47:43.392Z,55.11
2023-03-26T15:50:27.048Z,54.84
2023-03-26T15:53:25.842Z,55.54
2023-03-26T15:55:57.773Z,54.56
2023-03-26T15:58:31.752Z,54.88
2023-03-26T16:01:23.303Z,54.41
2023-03-26T16:03:56.366Z,55.83
2023-03-26T16:06:41.427Z,53.46
2023-03-26T16:09:24.281Z,54.26
2023-03-26T16:12:25.916Z,54.17
2023-03-26T16:15:13.608Z,54.14
2023-03-26T16:18:16.653Z,53.88
2023-03-26T16:21:01.682Z,52.69
2023-03-26T16:23:50.299Z,52.96
2023-03-26T16:26:39.366Z,53.17
2023-03-26T16:29:25.034Z,52.89
2023-03-26T16:32:26.135Z,52.64
2023-03-26T16:35:23.782Z,53.76
2023-03-26T16:38:14.700Z,53.49
2023-03-26T16:41:15.747Z,52.43
2023-03-26T16:43:58.750Z,53.18
2023-03-26T16:46:39.560Z,52.67
2023-03-26T16:49:47.433Z,52.38
2023-03-26T16:52:40.051Z,52.06
2023-03-26T16:55:35.188Z,53.22
2023-03-26T16:58:11.054Z,52.38
2023-03-26T17:00:52.481Z,51.31
2023-03-26T17:03:47.647Z,51.77
2023-03-26T17:06:28.377Z,51.15
2023-03-26T17:08:59.617Z,50.56
2023-03-26T17:11:58.293Z,51.08
2023-03-26T17:14:48.969Z,50.72
2023-03-26T17:17:46.591Z,49.78
2023-03-26T17:20:19.604Z,51.13
2023-03-26T17:22:57.685Z,49.17
2023-03-26T17:25:44.595Z,50.61
2023-03-26T17:28:44.016Z,50.00
2023-03-26T17:31:23.784Z,49.28
2023-03-26T17:33:50.882Z,51.05
2023-03-26T17:36:31.345Z,50.68
2023-03-26T17:39:18.350Z,51.01
2023-03-26T17:41:55.697Z,49.61
2023-03-26T17:44:49.957Z,51.61
2023-03-26T17:47:26.060Z,50.53
2023-03-26T17:50:23.041Z,51.73
2023-03-26T17:52:58.346Z,50.19
2023-03-26T17:55:32.045Z,51.54
2023-03-26T17:58:05.269Z,51.84
2023-03-26T18:00:41.776Z,49.54
2023-03-26T18:03:08.768Z,52.08
2023-03-26T18:05:39.406Z,50.07
2023-03-26T18:08:45.295Z,51.06
2023-03-26T18:11:31.146Z,51.57
2023-03-26T18:14:20.030Z,47.83
2023-03-26T18:16:53.202Z,50.02
2023-03-26T18:19:23.079Z,49.31
2023-03-26T18:21:57.072Z,49.44
2023-03-26T18:24:39.474Z,48.33
2023-03-26T18:27:12.507Z,48.54
2023-03-26T18:29:46.227Z,49.23
2023-03-26T18:32:15.304Z,49.83
2023-03-26T18:34:57.683Z,47.39
2023-03-26T18:37:29.264Z,51.08
2023-03-26T18:39:57.281Z,49.80
2023-03-26T18:42:25.367Z,49.22
2023-03-26T18:44:53.797Z,50.36
2023-03-26T18:47:28.126Z,49.93
2023-03-26T18:49:57.455Z,50.59
2023-03-26T18:52:27.168Z,49.71
2023-03-26T18:54:54.389Z,49.29
2023-03-26T18:57:27.701Z,49.68
2023-03-26T19:00:07.512Z,49.33
2023-03-26T19:02:35.085Z,49.61
2023-03-26T19:05:03.556Z,48.00
2023-03-26T19:07:30.581Z,49.17
2023-03-26T19:10:00.280Z,49.00
2023-03-26T19:12:37.431Z,48.00
2023-03-26T19:15:09.547Z,47.92
2023-03-26T19:18:07.747Z,49.19
2023-03-26T19:20:58.660Z,47.79
2023-03-26T19:23:31.821Z,46.97
2023-03-26T19:26:01.795Z,48.52
2023-03-26T19:28:32.141Z,46.54
2023-03-26T19:31:08.182Z,46.77
2023-03-26T19:33:43.001Z,47.77
2023-03-26T19:36:33.754Z,45.96
2023-03-26T19:39:02.315Z,46.57
2023-03-26T19:41:35.900Z,47.52
2023-03-26T19:44:20.733Z,46.58
2023-03-26T19:46:53.382Z,46.50
2023-03-26T19:49:53.059Z,45.29
2023-03-26T19:52:34.016Z,45.75
2023-03-26T19:55:01.532Z,46.95
2023-03-26T19:57:30.354Z,46.69
2023-03-26T19:59:57.933Z,45.81
2023-03-26T20:02:26.035Z,46.46
2023-03-26T20:04:52.854Z,45.61
2023-03-26T20:07:35.787Z,45.41
2023-03-26T20:10:05.804Z,47.07
2023-03-26T20:12:35.353Z,46.27
2023-03-26T20:15:02.198Z,47.92
2023-03-26T20:17:30.955Z,46.18
2023-03-26T20:19:57.767Z,47.32
2023-03-26T20:22:24.582Z,47.78
2023-03-26T20:24:51.670Z,46.98
2023-03-26T20:27:19.303Z,47.57
2023-03-26T20:29:46.542Z,48.73
2023-03-26T20:32:26.390Z,49.20
2023-03-26T20:34:54.166Z,48.43
2023-03-26T20:37:20.856Z,48.29
2023-03-26T20:39:48.241Z,48.59
2023-03-26T20:42:16.420Z,48.83
2023-03-26T20:44:44.371Z,47.96
2023-03-26T20:47:11.571Z,48.10
2023-03-26T20:49:39.164Z,48.09
2023-03-26T20:52:07.252Z,49.70
2023-03-26T20:54:35.709Z,49.27
2023-03-26T20:57:02.943Z,48.41
2023-03-26T20:59:31.173Z,48.57
2023-03-26T21:01:59.498Z,50.16
2023-03-26T21:04:27.354Z,48.64
2023-03-26T21:07:11.181Z,48.96
2023-03-26T21:09:44.946Z,48.87
2023-03-26T21:12:43.340Z,48.91
2023-03-26T21:15:22.376Z,47.44
2023-03-26T21:17:52.413Z,48.90
2023-03-26T21:20:21.416Z,49.17
2023-03-26T21:23:19.560Z,47.80
2023-03-26T21:26:42.976Z,48.03
2023-03-26T21:29:10.398Z,48.28
2023-03-26T21:31:40.532Z,47.35
2023-03-26T21:34:08.414Z,48.13
2023-03-26T21:36:36.810Z,47.26
2023-03-26T21:39:06.196Z,47.67
2023-03-26T21:41:44.878Z,47.63
2023-03-26T21:44:11.823Z,47.68
2023-03-26T21:46:42.140Z,47.25
2023-03-26T21:49:10.333Z,48.78
2023-03-26T21:51:37.988Z,47.39
2023-03-26T21:54:26.659Z,47.38
2023-03-26T21:57:05.956Z,47.49
2023-03-26T21:59:51.875Z,48.16
2023-03-26T22:02:24.696Z,47.31
2023-03-26T22:05:04.090Z,48.15
2023-03-26T22:07:54.872Z,48.47
2023-03-26T22:10:21.861Z,48.95
2023-03-26T22:12:49.910Z,48.41
2023-03-26T22:15:18.348Z,47.46
2023-03-26T22:17:46.647Z,48.50
2023-03-26T22:20:14.888Z,47.84
2023-03-26T22:22:48.654Z,47.83
2023-03-26T22:25:16.819Z,49.17
2023-03-26T22:27:45.205Z,48.75
2023-03-26T22:30:12.959Z,49.14
2023-03-26T22:32:40.143Z,49.35
2023-03-26T22:35:07.521Z,48.46
2023-03-26T22:37:36.209Z,48.67
2023-03-26T22:40:08.336Z,48.11
2023-03-26T22:42:36.335Z,48.77
2023-03-26T22:45:04.540Z,49.08
2023-03-26T22:47:33.831Z,48.86
2023-03-26T22:50:02.005Z,47.89
2023-03-26T22:52:30.513Z,49.02
2023-03-26T22:54:57.312Z,48.43
2023-03-26T22:57:24.360Z,48.87
2023-03-26T22:59:52.025Z,49.17
2023-03-26T23:02:20.072Z,50.83
2023-03-26T23:04:47.807Z,50.85
2023-03-26T23:07:15.240Z,51.46
2023-03-26T23:09:42.088Z,50.92
2023-03-26T23:12:08.747Z,51.26
2023-03-26T23:14:36.255Z,51.29
2023-03-26T23:17:03.812Z,51.05
2023-03-26T23:19:30.549Z,50.47
2023-03-26T23:21:57.545Z,50.58
2023-03-26T23:24:26.457Z,50.42
2023-03-26T23:26:53.354Z,51.26
2023-03-26T23:29:20.250Z,51.12
2023-03-26T23:31:47.536Z,51.37
2023-03-26T23:34:15.389Z,51.65
2023-03-26T23:36:42.815Z,52.32
2023-03-26T23:39:10.906Z,53.39
2023-03-26T23:41:38.031Z,53.45
2023-03-26T23:44:05.424Z,53.32
2023-03-26T23:46:35.090Z,54.14
2023-03-26T23:49:04.747Z,52.28
2023-03-26T23:51:32.601Z,51.81
2023-03-26T23:54:00.938Z,52.00
2023-03-26T23:56:29.849Z,53.07
2023-03-26T23:58:56.606Z,53.83
